Main page
METAR-TAF:

METAR-TAF

Airports :

Argyle International Airport

Saint Vincent, Saint Vincent and the Grenadines

latitude: 13-09-23N, longitude: 061-09-01W, elevation: 41 m

Current weather observation

The report was made 19 minutes ago, at 11:00 UTC
Wind 4 kt from the East/Northeast
Temperature 28°C
Humidity 84%
Pressure 1013 hPa
Visibility 10 km or more
Scattered clouds at a height of 2000 ft
Broken clouds at a height of 3400 ft

METAR: TVSA 211100Z 06004KT 9999 SCT020 BKN034 28/25 Q1013

Time: 07:19 (11:19 UTC)

Forecast

The report was made 6 hours and 19 minutes ago, at 05:00 UTC
Forecast valid from 21 at 06 UTC to 22 at 06 UTC
Wind 10 kt from the Northeast
Visibility 10 km or more
Scattered clouds at a height of 1800 ft

TAF: TVSA 210500Z 2106/2206 04010KT 9999 SCT018

Weather observations and forecasts of more than 4000 airports (METAR and TAF reports).

The available stations are represented by yellow and red dots on the map.

Hover mouse over dot to see the name of the station.

Then click to see weather observations and forecasts.

To change the map : click on the green buttons with a black cross to zoom in, on the green button with a dash to zoom out, or on the green arrows for adjacent maps.


METAR-TAF: